createdAt,value
2019-04-30T00:00:06.239Z,3.73
2019-04-30T00:02:42.549Z,3.70
2019-04-30T00:05:15.124Z,3.83
2019-04-30T00:07:41.292Z,4.00
2019-04-30T00:10:10.417Z,4.00
2019-04-30T00:12:39.667Z,3.73
2019-04-30T00:15:11.032Z,4.10
2019-04-30T00:17:38.786Z,3.87
2019-04-30T00:20:08.572Z,3.77
2019-04-30T00:22:39.366Z,3.47
2019-04-30T00:25:07.433Z,3.80
2019-04-30T00:27:35.862Z,3.30
2019-04-30T00:30:08.664Z,3.40
2019-04-30T00:32:37.211Z,3.70
2019-04-30T00:35:07.293Z,3.10
2019-04-30T00:37:36.128Z,3.43
2019-04-30T00:40:05.572Z,3.50
2019-04-30T00:42:35.663Z,3.87
2019-04-30T00:45:09.872Z,4.20
2019-04-30T00:47:39.545Z,4.33
2019-04-30T00:50:09.212Z,4.50
2019-04-30T00:52:37.707Z,4.80
2019-04-30T00:55:09.018Z,5.13
2019-04-30T00:57:43.742Z,5.03
2019-04-30T01:00:11.041Z,4.83
2019-04-30T01:03:00.804Z,4.80
2019-04-30T01:05:30.454Z,4.77
2019-04-30T01:07:58.888Z,4.80
2019-04-30T01:10:28.447Z,4.40
2019-04-30T01:12:59.833Z,4.27
2019-04-30T01:15:29.026Z,4.60
2019-04-30T01:17:59.290Z,4.10
2019-04-30T01:20:32.569Z,4.40
2019-04-30T01:23:02.938Z,4.10
2019-04-30T01:25:29.968Z,4.07
2019-04-30T01:27:58.626Z,4.10
2019-04-30T01:30:28.490Z,4.30
2019-04-30T01:32:58.822Z,4.07
2019-04-30T01:35:31.290Z,3.23
2019-04-30T01:37:59.598Z,3.77
2019-04-30T01:40:28.542Z,3.83
2019-04-30T01:42:59.199Z,3.50
2019-04-30T01:45:31.397Z,3.67
2019-04-30T01:48:00.605Z,3.40
2019-04-30T01:50:29.227Z,3.13
2019-04-30T01:52:59.098Z,3.80
2019-04-30T01:55:39.030Z,4.27
2019-04-30T01:58:29.975Z,4.00
2019-04-30T02:01:01.292Z,3.53
2019-04-30T02:03:29.708Z,3.77
2019-04-30T02:05:59.660Z,4.10
2019-04-30T02:08:29.539Z,3.83
2019-04-30T02:10:59.467Z,3.93
2019-04-30T02:13:29.487Z,4.00
2019-04-30T02:15:59.415Z,4.20
2019-04-30T02:18:29.627Z,4.37
2019-04-30T02:20:59.506Z,4.23
2019-04-30T02:23:29.753Z,4.47
2019-04-30T02:25:58.917Z,4.00
2019-04-30T02:28:28.973Z,4.20
2019-04-30T02:30:59.916Z,4.23
2019-04-30T02:33:30.911Z,4.00
2019-04-30T02:36:10.504Z,4.17
2019-04-30T02:38:42.394Z,3.90
2019-04-30T02:41:11.597Z,3.93
2019-04-30T02:43:41.314Z,3.73
2019-04-30T02:46:11.161Z,3.07
2019-04-30T02:48:42.026Z,3.10
2019-04-30T02:51:13.239Z,3.67
2019-04-30T02:54:23.964Z,3.60
2019-04-30T02:57:11.968Z,3.23
2019-04-30T03:00:00.564Z,3.07
2019-04-30T03:02:30.111Z,3.40
2019-04-30T03:05:00.202Z,3.10
2019-04-30T03:07:29.622Z,3.30
2019-04-30T03:09:59.815Z,3.13
2019-04-30T03:12:33.168Z,2.63
2019-04-30T03:15:00.423Z,2.80
2019-04-30T03:17:56.865Z,2.63
2019-04-30T03:20:49.758Z,2.70
2019-04-30T03:23:19.552Z,3.00
2019-04-30T03:25:50.152Z,2.67
2019-04-30T03:28:20.156Z,3.23
2019-04-30T03:30:51.901Z,3.50
2019-04-30T03:33:22.789Z,3.60
2019-04-30T03:35:53.934Z,3.77
2019-04-30T03:38:22.137Z,4.07
2019-04-30T03:40:50.627Z,4.20
2019-04-30T03:43:20.169Z,3.57
2019-04-30T03:45:49.897Z,3.60
2019-04-30T03:48:19.998Z,3.43
2019-04-30T03:50:55.806Z,4.10
2019-04-30T03:53:20.153Z,4.33
2019-04-30T03:55:50.562Z,4.40
2019-04-30T03:58:21.241Z,4.33
2019-04-30T04:01:23.911Z,4.70
2019-04-30T04:04:10.458Z,4.00
2019-04-30T04:06:43.549Z,4.30
2019-04-30T04:09:34.362Z,3.67
2019-04-30T04:12:21.305Z,4.20
2019-04-30T04:14:51.252Z,3.27
2019-04-30T04:17:20.677Z,3.23
2019-04-30T04:19:50.251Z,3.47
2019-04-30T04:22:20.689Z,4.00
2019-04-30T04:24:50.534Z,3.87
2019-04-30T04:27:19.790Z,3.53
2019-04-30T04:29:51.085Z,4.00
2019-04-30T04:32:23.635Z,3.77
2019-04-30T04:34:50.591Z,3.80
2019-04-30T04:37:19.860Z,3.60
2019-04-30T04:39:50.108Z,3.90
2019-04-30T04:42:19.617Z,3.90
2019-04-30T04:44:50.202Z,4.60
2019-04-30T04:47:19.865Z,3.83
2019-04-30T04:49:53.081Z,4.30
2019-04-30T04:52:21.430Z,4.30
2019-04-30T04:54:52.023Z,3.73
2019-04-30T04:57:22.759Z,4.17
2019-04-30T04:59:50.741Z,4.17
2019-04-30T05:02:44.711Z,4.30
2019-04-30T05:05:16.116Z,3.97
2019-04-30T05:07:44.646Z,3.63
2019-04-30T05:10:13.493Z,3.37
2019-04-30T05:12:42.968Z,3.60
2019-04-30T05:15:11.616Z,3.20
2019-04-30T05:17:41.851Z,3.50
2019-04-30T05:20:10.309Z,3.17
2019-04-30T05:22:39.026Z,3.10
2019-04-30T05:25:09.341Z,2.60
2019-04-30T05:27:39.205Z,3.20
2019-04-30T05:30:09.696Z,3.20
2019-04-30T05:32:39.284Z,2.80
2019-04-30T05:35:09.536Z,2.87
2019-04-30T05:37:39.987Z,2.70
2019-04-30T05:40:09.135Z,2.90
2019-04-30T05:42:38.785Z,2.53
2019-04-30T05:45:09.329Z,2.40
2019-04-30T05:47:38.933Z,2.20
2019-04-30T05:50:08.977Z,2.07
2019-04-30T05:52:39.796Z,2.00
2019-04-30T05:55:08.723Z,1.70
2019-04-30T05:57:43.306Z,1.60
2019-04-30T06:00:10.660Z,1.30
2019-04-30T06:02:40.025Z,1.23
2019-04-30T06:05:09.270Z,1.60
2019-04-30T06:07:39.515Z,1.40
2019-04-30T06:10:45.991Z,1.60
2019-04-30T06:13:19.080Z,1.57
2019-04-30T06:15:54.373Z,1.50
2019-04-30T06:18:23.033Z,1.60
2019-04-30T06:20:51.545Z,1.43
2019-04-30T06:23:20.088Z,1.43
2019-04-30T06:25:57.595Z,1.57
2019-04-30T06:28:21.619Z,1.73
2019-04-30T06:30:50.589Z,1.70
2019-04-30T06:33:19.575Z,1.80
2019-04-30T06:35:49.484Z,2.40
2019-04-30T06:38:18.469Z,2.40
2019-04-30T06:40:48.891Z,2.27
2019-04-30T06:43:19.155Z,2.07
2019-04-30T06:45:51.176Z,1.80
2019-04-30T06:48:19.983Z,2.00
2019-04-30T06:50:49.223Z,1.93
2019-04-30T06:53:19.316Z,1.50
2019-04-30T06:55:49.225Z,1.50
2019-04-30T06:58:20.279Z,1.50
2019-04-30T07:00:49.617Z,1.20
2019-04-30T07:03:19.281Z,1.20
2019-04-30T07:05:48.849Z,1.37
2019-04-30T07:08:55.550Z,1.50
2019-04-30T07:11:50.720Z,1.30
2019-04-30T07:14:19.649Z,1.57
2019-04-30T07:16:49.459Z,0.93
2019-04-30T07:19:29.982Z,1.13
2019-04-30T07:21:49.603Z,1.30
2019-04-30T07:24:20.782Z,1.33
2019-04-30T07:26:48.939Z,1.23
2019-04-30T07:29:19.508Z,1.20
2019-04-30T07:31:49.020Z,1.30
2019-04-30T07:34:19.621Z,1.30
2019-04-30T07:36:55.146Z,1.10
2019-04-30T07:39:19.195Z,1.47
2019-04-30T07:41:49.460Z,1.17
2019-04-30T07:44:31.166Z,1.50
2019-04-30T07:46:49.348Z,1.43
2019-04-30T07:49:20.480Z,1.73
2019-04-30T07:51:51.221Z,1.30
2019-04-30T07:54:18.972Z,1.40
2019-04-30T07:56:50.405Z,2.37
2019-04-30T07:59:20.151Z,1.40
2019-04-30T08:02:03.691Z,1.10
2019-04-30T08:04:44.577Z,1.37
2019-04-30T08:07:13.128Z,1.30
2019-04-30T08:09:42.341Z,1.00
2019-04-30T08:12:11.732Z,1.10
2019-04-30T08:14:41.175Z,1.00
2019-04-30T08:17:09.585Z,1.20
2019-04-30T08:19:38.489Z,1.10
2019-04-30T08:22:09.586Z,0.90
2019-04-30T08:24:39.075Z,1.02
2019-04-30T08:27:09.688Z,0.90
2019-04-30T08:29:39.484Z,1.07
2019-04-30T08:32:09.039Z,0.93
2019-04-30T08:34:39.369Z,1.00
2019-04-30T08:37:17.083Z,0.90
2019-04-30T08:39:39.722Z,1.00
2019-04-30T08:42:08.986Z,1.00
2019-04-30T08:44:39.523Z,1.00
2019-04-30T08:47:08.608Z,1.10
2019-04-30T08:49:37.423Z,1.20
2019-04-30T08:52:06.580Z,1.00
2019-04-30T08:54:35.053Z,1.10
2019-04-30T08:57:03.496Z,1.00
2019-04-30T08:59:32.023Z,1.00
2019-04-30T09:02:12.851Z,1.10
2019-04-30T09:04:31.638Z,1.10
2019-04-30T09:07:00.185Z,1.42
2019-04-30T09:09:29.580Z,1.10
2019-04-30T09:11:59.201Z,1.20
2019-04-30T09:14:29.647Z,1.10
2019-04-30T09:16:59.544Z,1.00
2019-04-30T09:19:29.899Z,0.90
2019-04-30T09:21:59.064Z,1.50
2019-04-30T09:24:30.765Z,1.37
2019-04-30T09:26:59.048Z,1.52
2019-04-30T09:29:29.248Z,1.10
2019-04-30T09:31:59.520Z,1.05
2019-04-30T09:34:29.083Z,1.10
2019-04-30T09:36:58.889Z,3.58
2019-04-30T09:39:29.370Z,1.32
2019-04-30T09:41:59.603Z,1.20
2019-04-30T09:44:30.563Z,1.15
2019-04-30T09:46:58.915Z,1.12
2019-04-30T09:49:29.293Z,2.77
2019-04-30T09:51:59.502Z,1.07
2019-04-30T09:54:28.985Z,1.00
2019-04-30T09:56:59.020Z,1.00
2019-04-30T09:59:29.097Z,1.10
2019-04-30T10:01:57.733Z,1.30
2019-04-30T10:04:29.731Z,1.25
2019-04-30T10:06:59.425Z,1.20
2019-04-30T10:09:29.359Z,1.20
2019-04-30T10:12:13.336Z,1.30
2019-04-30T10:14:41.798Z,1.52
2019-04-30T10:17:46.261Z,1.25
2019-04-30T10:20:18.300Z,1.40
2019-04-30T10:22:46.710Z,1.70
2019-04-30T10:25:15.182Z,1.92
2019-04-30T10:27:43.726Z,1.50
2019-04-30T10:30:12.930Z,1.55
2019-04-30T10:32:42.886Z,1.20
2019-04-30T10:35:12.818Z,1.40
2019-04-30T10:37:41.648Z,1.50
2019-04-30T10:40:10.518Z,1.57
2019-04-30T10:42:39.336Z,1.40
2019-04-30T10:45:09.816Z,1.25
2019-04-30T10:47:39.324Z,0.93
2019-04-30T10:50:09.887Z,1.85
2019-04-30T10:52:39.340Z,1.17
2019-04-30T10:55:09.366Z,1.35
2019-04-30T10:57:39.630Z,1.40
2019-04-30T11:00:12.230Z,1.30
2019-04-30T11:02:40.759Z,1.10
2019-04-30T11:05:09.273Z,1.07
2019-04-30T11:07:38.438Z,1.20
2019-04-30T11:10:08.719Z,1.22
2019-04-30T11:12:39.178Z,0.80
2019-04-30T11:15:08.430Z,0.95
2019-04-30T11:17:37.059Z,1.62
2019-04-30T11:20:06.773Z,1.30
2019-04-30T11:22:35.468Z,1.02
2019-04-30T11:25:04.751Z,1.07
2019-04-30T11:27:36.237Z,1.00
2019-04-30T11:30:17.667Z,1.10
2019-04-30T11:32:35.975Z,1.07
2019-04-30T11:35:05.015Z,1.07
2019-04-30T11:37:33.458Z,0.95
2019-04-30T11:40:01.927Z,1.37
2019-04-30T11:42:32.401Z,1.02
2019-04-30T11:45:01.147Z,1.15
2019-04-30T11:47:36.551Z,1.10
2019-04-30T11:50:08.010Z,1.75
2019-04-30T11:52:36.903Z,1.40
2019-04-30T11:55:06.915Z,1.10
2019-04-30T11:57:35.509Z,1.10
2019-04-30T12:00:08.552Z,1.10
2019-04-30T12:02:40.533Z,1.00
2019-04-30T12:05:10.218Z,1.22
2019-04-30T12:07:48.333Z,1.00
2019-04-30T12:10:49.098Z,1.15
2019-04-30T12:13:24.545Z,0.90
2019-04-30T12:15:53.792Z,1.00
2019-04-30T12:18:40.560Z,1.02
2019-04-30T12:21:08.983Z,0.90
2019-04-30T12:23:37.432Z,1.87
2019-04-30T12:26:06.300Z,1.60
2019-04-30T12:28:35.783Z,1.00
2019-04-30T12:31:05.883Z,1.37
2019-04-30T12:33:34.494Z,1.00
2019-04-30T12:36:06.485Z,1.20
2019-04-30T12:38:34.964Z,1.20
2019-04-30T12:41:03.532Z,1.10
2019-04-30T12:43:31.912Z,1.10
2019-04-30T12:46:03.364Z,1.00
2019-04-30T12:48:54.038Z,1.10
2019-04-30T12:51:45.237Z,1.12
2019-04-30T12:54:23.871Z,1.00
2019-04-30T12:57:19.122Z,0.95
2019-04-30T12:59:47.852Z,1.30
2019-04-30T13:02:19.527Z,1.30
2019-04-30T13:04:49.321Z,2.30
2019-04-30T13:07:20.943Z,2.58
2019-04-30T13:09:50.666Z,1.67
2019-04-30T13:12:19.904Z,1.20
2019-04-30T13:14:52.373Z,1.02
2019-04-30T13:17:19.785Z,1.62
2019-04-30T13:19:48.220Z,1.40
2019-04-30T13:22:16.619Z,1.20
2019-04-30T13:24:49.829Z,1.40
2019-04-30T13:27:22.297Z,1.10
2019-04-30T13:30:14.373Z,1.02
2019-04-30T13:32:49.555Z,1.10
2019-04-30T13:35:19.081Z,1.72
2019-04-30T13:37:53.625Z,1.00
2019-04-30T13:40:41.341Z,1.00
2019-04-30T13:43:10.963Z,1.10
2019-04-30T13:45:39.755Z,1.00
2019-04-30T13:48:09.015Z,1.00
2019-04-30T13:50:39.204Z,1.20
2019-04-30T13:53:09.347Z,1.20
2019-04-30T13:55:45.708Z,1.20
2019-04-30T13:58:08.068Z,1.67
2019-04-30T14:00:36.538Z,2.23
2019-04-30T14:03:19.242Z,1.92
2019-04-30T14:05:51.537Z,1.30
2019-04-30T14:08:25.654Z,1.10
2019-04-30T14:10:54.248Z,1.33
2019-04-30T14:13:23.703Z,1.60
2019-04-30T14:15:52.228Z,1.70
2019-04-30T14:18:28.418Z,1.30
2019-04-30T14:20:50.961Z,1.33
2019-04-30T14:23:19.470Z,1.10
2019-04-30T14:25:56.255Z,1.40
2019-04-30T14:28:19.149Z,1.40
2019-04-30T14:30:49.066Z,1.40
2019-04-30T14:33:25.615Z,1.70
2019-04-30T14:35:49.673Z,1.60
2019-04-30T14:38:19.091Z,1.70
2019-04-30T14:40:48.371Z,1.40
2019-04-30T14:43:27.641Z,1.10
2019-04-30T14:46:22.390Z,1.70
2019-04-30T14:48:54.659Z,1.50
2019-04-30T14:51:23.624Z,1.20
2019-04-30T14:54:09.465Z,1.10
2019-04-30T14:56:47.233Z,1.10
2019-04-30T14:59:34.042Z,0.90
2019-04-30T15:02:21.672Z,1.00
2019-04-30T15:04:50.238Z,1.00
2019-04-30T15:07:19.480Z,0.90
2019-04-30T15:09:47.992Z,0.98
2019-04-30T15:12:16.518Z,1.70
2019-04-30T15:14:44.971Z,1.10
2019-04-30T15:17:13.453Z,1.10
2019-04-30T15:19:42.025Z,1.30
2019-04-30T15:22:10.480Z,1.20
2019-04-30T15:24:39.349Z,1.10
2019-04-30T15:27:09.271Z,1.30
2019-04-30T15:29:39.226Z,1.00
2019-04-30T15:32:08.672Z,1.17
2019-04-30T15:34:39.904Z,1.20
2019-04-30T15:37:18.667Z,1.23
2019-04-30T15:39:39.608Z,0.93
2019-04-30T15:42:09.397Z,1.17
2019-04-30T15:44:55.818Z,1.10
2019-04-30T15:47:24.253Z,1.10
2019-04-30T15:49:52.951Z,1.20
2019-04-30T15:52:21.518Z,1.20
2019-04-30T15:54:49.950Z,1.27
2019-04-30T15:57:19.513Z,1.30
2019-04-30T15:59:49.086Z,1.40
2019-04-30T16:02:53.675Z,1.30
2019-04-30T16:05:28.026Z,1.10
2019-04-30T16:08:05.519Z,1.00
2019-04-30T16:10:50.655Z,1.30
2019-04-30T16:13:20.981Z,1.10
2019-04-30T16:15:49.440Z,1.10
2019-04-30T16:18:19.563Z,1.30
2019-04-30T16:20:49.823Z,1.00
2019-04-30T16:23:19.152Z,1.17
2019-04-30T16:25:47.760Z,1.30
2019-04-30T16:28:16.188Z,1.10
2019-04-30T16:30:44.759Z,1.50
2019-04-30T16:33:13.158Z,1.30
2019-04-30T16:35:41.597Z,1.33
2019-04-30T16:38:11.140Z,1.17
2019-04-30T16:40:39.602Z,1.67
2019-04-30T16:43:08.321Z,1.60
2019-04-30T16:45:39.015Z,1.57
2019-04-30T16:48:07.441Z,1.90
2019-04-30T16:50:35.887Z,1.80
2019-04-30T16:53:05.318Z,1.40
2019-04-30T16:55:33.804Z,1.90
2019-04-30T16:58:02.251Z,1.97
2019-04-30T17:00:31.628Z,2.40
2019-04-30T17:03:04.703Z,2.80
2019-04-30T17:05:43.303Z,2.37
2019-04-30T17:08:19.345Z,1.30
2019-04-30T17:10:56.118Z,1.40
2019-04-30T17:13:43.642Z,1.80
2019-04-30T17:16:17.100Z,2.20
2019-04-30T17:18:45.601Z,3.07
2019-04-30T17:21:14.042Z,2.23
2019-04-30T17:23:44.642Z,1.97
2019-04-30T17:26:13.381Z,1.50
2019-04-30T17:28:41.852Z,1.20
2019-04-30T17:31:10.298Z,1.30
2019-04-30T17:33:38.734Z,1.97
2019-04-30T17:36:08.355Z,1.50
2019-04-30T17:38:38.773Z,2.10
2019-04-30T17:41:07.316Z,1.90
2019-04-30T17:43:35.752Z,1.70
2019-04-30T17:46:04.415Z,1.60
2019-04-30T17:48:35.166Z,1.60
2019-04-30T17:51:03.837Z,1.23
2019-04-30T17:53:33.429Z,1.60
2019-04-30T17:56:03.916Z,1.23
2019-04-30T17:58:32.305Z,1.40
2019-04-30T18:01:02.274Z,1.30
2019-04-30T18:03:30.692Z,1.30
2019-04-30T18:05:59.323Z,1.90
2019-04-30T18:08:28.346Z,1.50
2019-04-30T18:10:58.894Z,1.70
2019-04-30T18:13:27.399Z,1.50
2019-04-30T18:15:55.992Z,1.60
2019-04-30T18:18:42.845Z,1.80
2019-04-30T18:21:45.861Z,1.53
2019-04-30T18:24:24.788Z,2.23
2019-04-30T18:26:57.571Z,2.00
2019-04-30T18:29:27.242Z,1.97
2019-04-30T18:31:59.660Z,2.17
2019-04-30T18:34:29.126Z,1.33
2019-04-30T18:37:04.757Z,1.40
2019-04-30T18:39:33.759Z,1.60
2019-04-30T18:42:02.673Z,1.80
2019-04-30T18:44:36.201Z,1.30
2019-04-30T18:47:04.762Z,3.00
2019-04-30T18:49:34.573Z,2.20
2019-04-30T18:52:04.971Z,1.57
2019-04-30T18:54:33.812Z,1.30
2019-04-30T18:57:02.676Z,1.40
2019-04-30T18:59:32.745Z,1.47
2019-04-30T19:02:05.659Z,1.43
2019-04-30T19:04:34.131Z,1.53
2019-04-30T19:07:14.557Z,1.93
2019-04-30T19:09:50.323Z,1.40
2019-04-30T19:12:39.141Z,1.50
2019-04-30T19:15:48.483Z,1.63
2019-04-30T19:18:33.232Z,1.60
2019-04-30T19:21:02.501Z,1.57
2019-04-30T19:23:31.089Z,1.70
2019-04-30T19:25:59.737Z,2.23
2019-04-30T19:28:28.753Z,3.03
2019-04-30T19:30:58.795Z,2.50
2019-04-30T19:33:30.753Z,1.60
2019-04-30T19:36:00.373Z,1.50
2019-04-30T19:38:28.848Z,1.70
2019-04-30T19:40:57.632Z,1.50
2019-04-30T19:43:26.125Z,2.50
2019-04-30T19:45:54.544Z,1.70
2019-04-30T19:48:23.002Z,1.60
2019-04-30T19:50:51.518Z,1.60
2019-04-30T19:53:21.999Z,1.80
2019-04-30T19:55:50.247Z,1.60
2019-04-30T19:58:27.758Z,1.50
2019-04-30T20:00:49.935Z,2.03
2019-04-30T20:03:19.730Z,1.80
2019-04-30T20:05:49.358Z,1.80
2019-04-30T20:08:19.838Z,1.83
2019-04-30T20:10:50.369Z,1.70
2019-04-30T20:13:33.076Z,1.73
2019-04-30T20:15:50.863Z,1.77
2019-04-30T20:18:21.813Z,1.40
2019-04-30T20:20:52.883Z,1.70
2019-04-30T20:23:22.390Z,1.60
2019-04-30T20:25:53.066Z,1.80
2019-04-30T20:28:42.387Z,1.70
2019-04-30T20:31:11.579Z,2.03
2019-04-30T20:33:40.268Z,1.80
2019-04-30T20:36:09.281Z,1.70
2019-04-30T20:39:00.133Z,1.73
2019-04-30T20:41:29.515Z,1.80
2019-04-30T20:43:58.978Z,1.90
2019-04-30T20:46:34.336Z,1.80
2019-04-30T20:48:59.272Z,2.17
2019-04-30T20:51:29.062Z,2.00
2019-04-30T20:53:59.635Z,1.77
2019-04-30T20:56:29.148Z,1.70
2019-04-30T20:59:02.351Z,1.60
2019-04-30T21:01:29.397Z,1.57
2019-04-30T21:04:00.673Z,1.70
2019-04-30T21:06:30.253Z,1.83
2019-04-30T21:08:58.698Z,1.80
2019-04-30T21:11:27.200Z,1.90
2019-04-30T21:13:55.871Z,2.03
2019-04-30T21:16:24.436Z,1.73
2019-04-30T21:18:52.827Z,1.90
2019-04-30T21:21:21.363Z,1.90
2019-04-30T21:23:50.923Z,2.20
2019-04-30T21:26:19.680Z,2.10
2019-04-30T21:28:49.426Z,1.60
2019-04-30T21:31:36.202Z,1.80
2019-04-30T21:34:14.597Z,1.80
2019-04-30T21:36:44.003Z,2.17
2019-04-30T21:39:13.313Z,2.40
2019-04-30T21:41:41.838Z,1.80
2019-04-30T21:44:10.286Z,1.70
2019-04-30T21:46:39.535Z,1.87
2019-04-30T21:49:08.890Z,1.97
2019-04-30T21:51:39.999Z,2.07
2019-04-30T21:54:07.746Z,1.73
2019-04-30T21:56:36.250Z,1.80
2019-04-30T21:59:04.784Z,1.80
2019-04-30T22:01:33.298Z,1.77
2019-04-30T22:04:03.621Z,1.83
2019-04-30T22:06:32.148Z,1.80
2019-04-30T22:09:00.658Z,1.70
2019-04-30T22:11:29.754Z,1.67
2019-04-30T22:13:58.345Z,1.70
2019-04-30T22:16:29.525Z,1.60
2019-04-30T22:18:57.615Z,1.90
2019-04-30T22:21:26.038Z,1.73
2019-04-30T22:23:56.845Z,1.90
2019-04-30T22:26:25.263Z,1.70
2019-04-30T22:28:54.765Z,1.87
2019-04-30T22:31:23.346Z,1.70
2019-04-30T22:33:51.838Z,2.00
2019-04-30T22:36:42.313Z,1.80
2019-04-30T22:39:34.398Z,1.80
2019-04-30T22:42:39.771Z,1.70
2019-04-30T22:45:27.861Z,1.80
2019-04-30T22:47:56.471Z,1.70
2019-04-30T22:50:25.918Z,2.00
2019-04-30T22:52:55.785Z,1.50
2019-04-30T22:55:24.253Z,1.90
2019-04-30T22:57:52.697Z,1.70
2019-04-30T23:00:33.357Z,1.80
2019-04-30T23:03:08.279Z,1.80
2019-04-30T23:05:36.936Z,1.60
2019-04-30T23:08:05.391Z,1.60
2019-04-30T23:10:34.000Z,1.67
2019-04-30T23:13:02.629Z,1.80
2019-04-30T23:15:32.996Z,1.83
2019-04-30T23:18:01.596Z,2.07
2019-04-30T23:20:31.063Z,1.60
2019-04-30T23:22:59.570Z,1.80
2019-04-30T23:25:31.011Z,1.80
2019-04-30T23:28:01.854Z,1.90
2019-04-30T23:30:30.413Z,1.93
2019-04-30T23:32:58.862Z,1.90
2019-04-30T23:35:27.316Z,1.80
2019-04-30T23:37:55.899Z,1.90
2019-04-30T23:40:29.386Z,1.83
2019-04-30T23:42:58.274Z,2.10
2019-04-30T23:45:26.716Z,1.90
2019-04-30T23:47:55.263Z,2.10
2019-04-30T23:50:23.673Z,2.10
2019-04-30T23:52:55.095Z,2.10
2019-04-30T23:55:23.511Z,2.40
2019-04-30T23:57:51.910Z,2.13
